createdAt,value
2018-04-04T00:00:17.259Z,1.93
2018-04-04T00:02:44.766Z,2.17
2018-04-04T00:05:12.225Z,2.57
2018-04-04T00:07:39.681Z,3.43
2018-04-04T00:10:07.100Z,2.47
2018-04-04T00:12:34.524Z,2.00
2018-04-04T00:15:01.944Z,2.20
2018-04-04T00:17:29.510Z,2.50
2018-04-04T00:19:56.967Z,3.10
2018-04-04T00:22:24.383Z,3.43
2018-04-04T00:24:51.807Z,3.20
2018-04-04T00:27:20.007Z,4.83
2018-04-04T00:29:47.656Z,3.40
2018-04-04T00:32:15.067Z,2.70
2018-04-04T00:34:42.618Z,2.20
2018-04-04T00:37:10.084Z,2.17
2018-04-04T00:39:37.509Z,2.53
2018-04-04T00:42:04.927Z,2.50
2018-04-04T00:44:32.351Z,2.30
2018-04-04T00:46:59.806Z,2.43
2018-04-04T00:49:27.267Z,1.83
2018-04-04T00:51:54.683Z,2.00
2018-04-04T00:54:22.886Z,2.23
2018-04-04T00:56:50.293Z,2.20
2018-04-04T00:59:17.711Z,2.93
2018-04-04T01:01:45.135Z,2.83
2018-04-04T01:04:12.562Z,2.33
2018-04-04T01:06:39.975Z,2.30
2018-04-04T01:09:07.395Z,2.60
2018-04-04T01:11:34.832Z,2.33
2018-04-04T01:14:02.440Z,2.40
2018-04-04T01:16:29.879Z,3.77
2018-04-04T01:18:57.295Z,1.70
2018-04-04T01:21:24.906Z,2.17
2018-04-04T01:23:52.322Z,2.23
2018-04-04T01:26:19.747Z,2.10
2018-04-04T01:28:48.096Z,2.53
2018-04-04T01:31:16.149Z,1.90
2018-04-04T01:33:42.943Z,2.63
2018-04-04T01:36:10.572Z,2.07
2018-04-04T01:38:37.992Z,2.47
2018-04-04T01:41:05.422Z,2.17
2018-04-04T01:43:32.844Z,2.27
2018-04-04T01:46:26.763Z,2.17
2018-04-04T01:48:54.188Z,2.20
2018-04-04T01:51:21.721Z,2.17
2018-04-04T01:53:49.143Z,2.50
2018-04-04T01:56:16.634Z,2.37
2018-04-04T01:58:44.087Z,2.23
2018-04-04T02:01:11.544Z,2.50
2018-04-04T02:03:38.999Z,2.30
2018-04-04T02:06:06.463Z,2.37
2018-04-04T02:08:33.912Z,2.10
2018-04-04T02:11:01.336Z,2.47
2018-04-04T02:13:28.759Z,2.57
2018-04-04T02:15:56.288Z,2.30
2018-04-04T02:18:23.725Z,2.30
2018-04-04T02:20:51.139Z,2.33
2018-04-04T02:23:18.566Z,1.97
2018-04-04T02:25:45.988Z,2.57
2018-04-04T02:28:13.424Z,1.90
2018-04-04T02:30:41.811Z,2.37
2018-04-04T02:33:09.297Z,2.33
2018-04-04T02:35:36.859Z,2.27
2018-04-04T02:38:04.275Z,1.93
2018-04-04T02:40:31.712Z,2.10
2018-04-04T02:42:59.128Z,1.93
2018-04-04T02:45:26.591Z,2.30
2018-04-04T02:47:54.011Z,2.47
2018-04-04T02:50:21.599Z,2.00
2018-04-04T02:52:49.022Z,2.33
2018-04-04T02:55:16.454Z,2.33
2018-04-04T02:57:44.640Z,2.40
2018-04-04T03:00:12.087Z,2.50
2018-04-04T03:02:39.495Z,2.67
2018-04-04T03:05:07.135Z,3.40
2018-04-04T03:07:34.546Z,3.00
2018-04-04T03:10:02.043Z,3.07
2018-04-04T03:12:29.523Z,2.87
2018-04-04T03:14:56.951Z,2.40
2018-04-04T03:17:24.399Z,2.43
2018-04-04T03:19:51.834Z,2.80
2018-04-04T03:22:19.246Z,2.50
2018-04-04T03:24:46.675Z,2.40
2018-04-04T03:27:14.259Z,2.57
2018-04-04T03:29:41.686Z,2.70
2018-04-04T03:32:09.115Z,3.07
2018-04-04T03:34:37.301Z,3.13
2018-04-04T03:37:04.727Z,3.53
2018-04-04T03:39:32.161Z,2.63
2018-04-04T03:41:59.622Z,2.23
2018-04-04T03:44:27.038Z,3.07
2018-04-04T03:46:54.494Z,3.57
2018-04-04T03:49:21.961Z,2.97
2018-04-04T03:51:49.532Z,2.17
2018-04-04T03:54:16.964Z,2.10
2018-04-04T03:56:44.384Z,3.10
2018-04-04T03:59:11.817Z,2.63
2018-04-04T04:01:39.355Z,2.63
2018-04-04T04:04:06.782Z,3.10
2018-04-04T04:06:34.277Z,3.00
2018-04-04T04:09:01.704Z,2.60
2018-04-04T04:11:29.128Z,2.40
2018-04-04T04:13:56.550Z,2.87
2018-04-04T04:16:23.966Z,2.67
2018-04-04T04:18:51.386Z,3.53
2018-04-04T04:21:18.872Z,2.57
2018-04-04T04:23:47.086Z,2.67
2018-04-04T04:26:14.702Z,3.23
2018-04-04T04:28:42.895Z,3.67
2018-04-04T04:31:10.318Z,3.63
2018-04-04T04:33:37.739Z,3.17
2018-04-04T04:36:05.291Z,3.23
2018-04-04T04:38:33.049Z,2.70
2018-04-04T04:41:00.479Z,3.17
2018-04-04T04:43:27.899Z,3.17
2018-04-04T04:45:55.324Z,3.60
2018-04-04T04:48:22.743Z,2.90
2018-04-04T04:50:50.647Z,2.67
2018-04-04T04:53:18.072Z,2.60
2018-04-04T04:55:45.495Z,2.97
2018-04-04T04:58:13.002Z,3.50
2018-04-04T05:00:40.443Z,3.47
2018-04-04T05:03:07.868Z,3.60
2018-04-04T05:05:35.314Z,3.40
2018-04-04T05:08:02.722Z,3.30
2018-04-04T05:10:30.167Z,4.10
2018-04-04T05:12:57.846Z,3.57
2018-04-04T05:15:25.375Z,4.00
2018-04-04T05:17:52.794Z,4.13
2018-04-04T05:20:20.324Z,4.27
2018-04-04T05:22:47.787Z,4.33
2018-04-04T05:25:15.238Z,5.00
2018-04-04T05:27:42.795Z,4.50
2018-04-04T05:30:10.223Z,5.40
2018-04-04T05:32:37.649Z,5.20
2018-04-04T05:35:05.071Z,6.07
2018-04-04T05:37:32.486Z,5.70
2018-04-04T05:39:59.950Z,5.70
2018-04-04T05:42:27.367Z,4.97
2018-04-04T05:44:55.589Z,4.70
2018-04-04T05:47:23.056Z,5.03
2018-04-04T05:49:50.482Z,3.90
2018-04-04T05:52:17.907Z,4.33
2018-04-04T05:54:45.337Z,4.30
2018-04-04T05:57:12.769Z,4.80
2018-04-04T05:59:40.210Z,6.63
2018-04-04T06:02:07.635Z,5.97
2018-04-04T06:04:35.840Z,5.73
2018-04-04T06:07:03.268Z,5.40
2018-04-04T06:09:30.693Z,5.70
2018-04-04T06:11:58.120Z,6.53
2018-04-04T06:14:25.566Z,6.40
2018-04-04T06:16:52.987Z,5.90
2018-04-04T06:19:21.215Z,5.50
2018-04-04T06:21:48.639Z,6.40
2018-04-04T06:24:16.066Z,5.63
2018-04-04T06:26:43.587Z,5.00
2018-04-04T06:29:11.044Z,3.63
2018-04-04T06:31:38.492Z,4.20
2018-04-04T06:34:05.903Z,4.30
2018-04-04T06:36:33.339Z,3.27
2018-04-04T06:39:00.763Z,3.27
2018-04-04T06:41:28.235Z,3.60
2018-04-04T06:43:55.772Z,2.57
2018-04-04T06:46:23.196Z,3.20
2018-04-04T06:48:50.685Z,2.73
2018-04-04T06:51:18.098Z,3.97
2018-04-04T06:53:45.533Z,3.40
2018-04-04T06:56:13.055Z,3.90
2018-04-04T06:58:40.482Z,3.80
2018-04-04T07:01:08.451Z,3.93
2018-04-04T07:03:35.884Z,4.47
2018-04-04T07:06:04.066Z,4.10
2018-04-04T07:08:31.499Z,3.77
2018-04-04T07:10:58.918Z,3.20
2018-04-04T07:13:26.343Z,3.20
2018-04-04T07:15:53.763Z,4.07
2018-04-04T07:18:21.396Z,3.20
2018-04-04T07:20:48.814Z,3.10
2018-04-04T07:23:16.235Z,3.70
2018-04-04T07:25:43.655Z,4.07
2018-04-04T07:28:11.086Z,4.00
2018-04-04T07:30:38.553Z,4.30
2018-04-04T07:33:05.971Z,4.20
2018-04-04T07:35:33.392Z,4.00
2018-04-04T07:38:01.051Z,4.53
2018-04-04T07:40:28.494Z,4.00
2018-04-04T07:42:55.915Z,4.57
2018-04-04T07:45:24.356Z,4.57
2018-04-04T07:47:51.787Z,3.33
2018-04-04T07:50:19.221Z,3.40
2018-04-04T07:52:46.644Z,3.53
2018-04-04T07:55:14.083Z,3.40
2018-04-04T07:57:41.511Z,3.50
2018-04-04T08:00:08.949Z,3.10
2018-04-04T08:02:36.395Z,3.67
2018-04-04T08:05:03.976Z,3.73
2018-04-04T08:07:31.400Z,3.90
2018-04-04T08:09:58.832Z,3.87
2018-04-04T08:12:26.251Z,4.47
2018-04-04T08:14:53.800Z,4.23
2018-04-04T08:17:21.292Z,4.20
2018-04-04T08:19:48.891Z,3.10
2018-04-04T08:22:17.402Z,3.40
2018-04-04T08:24:44.820Z,3.30
2018-04-04T08:27:12.242Z,2.97
2018-04-04T08:29:39.668Z,3.40
2018-04-04T08:32:07.106Z,4.00
2018-04-04T08:34:34.609Z,3.57
2018-04-04T08:37:02.016Z,3.07
2018-04-04T08:39:29.509Z,3.30
2018-04-04T08:41:57.706Z,3.87
2018-04-04T08:44:25.127Z,3.63
2018-04-04T08:46:52.565Z,4.17
2018-04-04T08:49:19.983Z,3.90
2018-04-04T08:51:47.403Z,3.27
2018-04-04T08:54:14.859Z,4.93
2018-04-04T08:56:42.407Z,4.07
2018-04-04T08:59:09.834Z,4.90
2018-04-04T09:01:37.254Z,4.10
2018-04-04T09:04:04.682Z,3.63
2018-04-04T09:06:32.127Z,3.53
2018-04-04T09:08:59.557Z,3.50
2018-04-04T09:11:27.730Z,3.90
2018-04-04T09:13:55.215Z,2.97
2018-04-04T09:16:22.630Z,3.70
2018-04-04T09:18:50.123Z,3.23
2018-04-04T09:21:17.535Z,3.77
2018-04-04T09:23:44.960Z,3.30
2018-04-04T09:26:12.482Z,3.43
2018-04-04T09:28:39.949Z,3.63
2018-04-04T09:31:07.406Z,7.53
2018-04-04T09:33:34.860Z,5.80
2018-04-04T09:36:02.328Z,7.77
2018-04-04T09:38:29.744Z,3.83
2018-04-04T09:40:57.213Z,3.50
2018-04-04T09:43:24.691Z,4.27
2018-04-04T09:45:52.118Z,3.80
2018-04-04T09:48:19.594Z,4.00
2018-04-04T09:50:47.059Z,2.83
2018-04-04T09:53:14.471Z,4.00
2018-04-04T09:55:41.895Z,3.50
2018-04-04T09:58:09.311Z,3.83
2018-04-04T10:00:42.513Z,4.70
2018-04-04T10:03:09.922Z,3.70
2018-04-04T10:05:37.334Z,3.93
2018-04-04T10:08:04.763Z,4.10
2018-04-04T10:10:32.178Z,3.73
2018-04-04T10:12:59.695Z,4.30
2018-04-04T10:15:27.141Z,4.03
2018-04-04T10:17:54.541Z,3.33
2018-04-04T10:20:21.957Z,3.90
2018-04-04T10:22:49.404Z,3.40
2018-04-04T10:25:16.838Z,3.33
2018-04-04T10:27:45.032Z,2.80
2018-04-04T10:30:12.442Z,3.00
2018-04-04T10:32:39.866Z,2.67
2018-04-04T10:35:07.293Z,3.20
2018-04-04T10:37:34.731Z,4.03
2018-04-04T10:40:02.915Z,3.13
2018-04-04T10:42:30.394Z,3.60
2018-04-04T10:44:57.822Z,3.77
2018-04-04T10:47:25.315Z,3.67
2018-04-04T10:49:52.740Z,3.33
2018-04-04T10:52:20.154Z,3.80
2018-04-04T10:54:47.582Z,3.30
2018-04-04T10:57:15.043Z,3.40
2018-04-04T10:59:42.594Z,3.70
2018-04-04T11:02:10.048Z,4.10
2018-04-04T11:04:37.470Z,3.93
2018-04-04T11:07:04.887Z,3.80
2018-04-04T11:09:32.367Z,3.50
2018-04-04T11:11:59.764Z,3.60
2018-04-04T11:14:27.956Z,4.00
2018-04-04T11:16:55.375Z,2.70
2018-04-04T11:19:22.783Z,3.50
2018-04-04T11:21:50.206Z,3.47
2018-04-04T11:24:17.770Z,4.07
2018-04-04T11:26:45.187Z,3.87
2018-04-04T11:29:12.604Z,4.10
2018-04-04T11:31:40.032Z,4.07
2018-04-04T11:34:07.597Z,3.03
2018-04-04T11:36:35.022Z,4.27
2018-04-04T11:39:02.443Z,3.27
2018-04-04T11:41:29.862Z,3.50
2018-04-04T11:43:57.328Z,2.80
2018-04-04T11:46:25.474Z,3.60
2018-04-04T11:48:52.974Z,3.87
2018-04-04T11:51:20.405Z,3.20
2018-04-04T11:53:47.847Z,4.40
2018-04-04T11:56:15.244Z,3.47
2018-04-04T11:58:42.668Z,4.47
2018-04-04T12:01:10.131Z,3.53
2018-04-04T12:03:37.591Z,3.70
2018-04-04T12:06:05.140Z,3.20
2018-04-04T12:08:32.558Z,2.87
2018-04-04T12:11:00.048Z,3.10
2018-04-04T12:13:27.463Z,3.10
2018-04-04T12:15:54.961Z,3.23
2018-04-04T12:18:22.378Z,4.77
2018-04-04T12:20:49.794Z,4.47
2018-04-04T12:23:17.331Z,2.60
2018-04-04T12:25:44.744Z,2.70
2018-04-04T12:28:12.177Z,3.27
2018-04-04T12:30:39.594Z,3.00
2018-04-04T12:33:07.156Z,2.20
2018-04-04T12:35:34.591Z,2.87
2018-04-04T12:38:02.007Z,2.33
2018-04-04T12:40:29.431Z,1.60
2018-04-04T12:42:56.982Z,1.73
2018-04-04T12:45:24.439Z,2.10
2018-04-04T12:47:51.900Z,2.00
2018-04-04T12:50:19.331Z,1.70
2018-04-04T12:52:46.767Z,1.57
2018-04-04T12:55:14.199Z,1.90
2018-04-04T12:57:41.623Z,1.60
2018-04-04T13:00:09.166Z,1.50
2018-04-04T13:02:36.596Z,1.67
2018-04-04T13:05:04.028Z,2.13
2018-04-04T13:07:32.228Z,1.47
2018-04-04T13:09:59.642Z,1.43
2018-04-04T13:12:27.070Z,1.20
2018-04-04T13:14:54.495Z,1.30
2018-04-04T13:17:22.141Z,1.20
2018-04-04T13:19:49.347Z,1.30
2018-04-04T13:22:16.898Z,1.20
2018-04-04T13:24:44.325Z,1.33
2018-04-04T13:27:11.755Z,2.07
2018-04-04T13:29:39.171Z,1.77
2018-04-04T13:32:06.609Z,1.63
2018-04-04T13:34:34.171Z,1.27
2018-04-04T13:37:01.599Z,1.73
2018-04-04T13:39:29.019Z,1.27
2018-04-04T13:41:56.469Z,1.30
2018-04-04T13:44:23.921Z,1.70
2018-04-04T13:46:51.402Z,1.40
2018-04-04T13:49:18.816Z,1.40
2018-04-04T13:51:46.238Z,1.23
2018-04-04T13:54:13.667Z,1.20
2018-04-04T13:56:41.093Z,1.20
2018-04-04T13:59:08.535Z,1.00
2018-04-04T14:01:36.081Z,1.10
2018-04-04T14:04:03.498Z,1.20
2018-04-04T14:06:31.691Z,1.50
2018-04-04T14:08:59.128Z,1.43
2018-04-04T14:11:26.543Z,1.30
2018-04-04T14:13:54.099Z,1.10
2018-04-04T14:16:21.557Z,2.10
2018-04-04T14:18:48.978Z,1.80
2018-04-04T14:21:16.461Z,1.10
2018-04-04T14:23:43.885Z,1.30
2018-04-04T14:26:11.315Z,1.30
2018-04-04T14:28:38.865Z,1.10
2018-04-04T14:31:06.364Z,1.40
2018-04-04T14:33:33.952Z,1.20
2018-04-04T14:36:01.389Z,1.53
2018-04-04T14:38:28.799Z,1.03
2018-04-04T14:40:56.261Z,1.20
2018-04-04T14:43:23.663Z,1.30
2018-04-04T14:45:51.074Z,1.30
2018-04-04T14:48:18.512Z,1.60
2018-04-04T14:50:45.932Z,1.60
2018-04-04T14:53:13.360Z,1.80
2018-04-04T14:55:40.771Z,1.43
2018-04-04T14:58:08.303Z,1.87
2018-04-04T15:00:35.725Z,1.63
2018-04-04T15:03:03.214Z,1.37
2018-04-04T15:05:30.632Z,2.00
2018-04-04T15:07:58.131Z,1.20
2018-04-04T15:10:25.584Z,1.47
2018-04-04T15:12:53.007Z,1.40
2018-04-04T15:15:20.418Z,1.40
2018-04-04T15:17:47.863Z,1.80
2018-04-04T15:20:15.274Z,1.40
2018-04-04T15:22:43.659Z,1.30
2018-04-04T15:25:11.080Z,1.60
2018-04-04T15:27:38.611Z,1.40
2018-04-04T15:30:06.030Z,1.30
2018-04-04T15:32:33.446Z,1.30
2018-04-04T15:35:00.979Z,1.20
2018-04-04T15:37:28.395Z,1.30
2018-04-04T15:39:55.859Z,1.23
2018-04-04T15:42:23.489Z,1.50
2018-04-04T15:44:51.731Z,1.20
2018-04-04T15:47:19.275Z,1.23
2018-04-04T15:49:46.699Z,1.70
2018-04-04T15:52:14.112Z,1.50
2018-04-04T15:54:41.535Z,1.40
2018-04-04T15:57:08.947Z,1.30
2018-04-04T15:59:37.146Z,1.23
2018-04-04T16:02:10.260Z,1.20
2018-04-04T16:04:37.682Z,2.83
2018-04-04T16:07:05.111Z,1.90
2018-04-04T16:09:32.526Z,1.47
2018-04-04T16:11:59.955Z,1.30
2018-04-04T16:14:27.374Z,1.40
2018-04-04T16:16:55.097Z,2.33
2018-04-04T16:19:22.492Z,1.70
2018-04-04T16:21:49.915Z,1.40
2018-04-04T16:24:17.556Z,1.53
2018-04-04T16:26:44.983Z,1.43
2018-04-04T16:29:12.408Z,1.67
2018-04-04T16:31:39.831Z,1.80
2018-04-04T16:34:07.243Z,1.87
2018-04-04T16:36:35.444Z,1.80
2018-04-04T16:39:02.865Z,1.30
2018-04-04T16:41:31.058Z,1.57
2018-04-04T16:43:58.695Z,1.47
2018-04-04T16:46:26.113Z,1.80
2018-04-04T16:48:53.667Z,1.40
2018-04-04T16:51:21.098Z,2.10
2018-04-04T16:53:48.524Z,1.20
2018-04-04T16:56:16.816Z,1.77
2018-04-04T16:58:45.011Z,1.80
2018-04-04T17:01:12.443Z,1.87
2018-04-04T17:03:40.635Z,1.47
2018-04-04T17:06:08.247Z,1.70
2018-04-04T17:08:35.681Z,1.70
2018-04-04T17:11:03.109Z,1.80
2018-04-04T17:13:30.624Z,1.40
2018-04-04T17:15:58.083Z,1.53
2018-04-04T17:18:25.528Z,1.90
2018-04-04T17:20:53.059Z,3.30
2018-04-04T17:23:20.479Z,1.70
2018-04-04T17:25:47.906Z,2.13
2018-04-04T17:28:15.342Z,2.53
2018-04-04T17:30:42.780Z,1.90
2018-04-04T17:33:10.203Z,2.13
2018-04-04T17:35:37.700Z,2.90
2018-04-04T17:38:05.124Z,1.63
2018-04-04T17:40:32.580Z,2.10
2018-04-04T17:43:00.025Z,1.40
2018-04-04T17:45:27.457Z,1.57
2018-04-04T17:47:54.883Z,1.63
2018-04-04T17:50:22.436Z,1.93
2018-04-04T17:52:49.888Z,1.97
2018-04-04T17:55:17.381Z,1.90
2018-04-04T17:57:45.038Z,3.03
2018-04-04T18:00:12.449Z,1.27
2018-04-04T18:02:39.988Z,2.47
2018-04-04T18:05:07.412Z,1.40
2018-04-04T18:07:34.839Z,1.70
2018-04-04T18:10:02.261Z,1.90
2018-04-04T18:12:29.843Z,1.60
2018-04-04T18:14:57.236Z,1.57
2018-04-04T18:17:24.689Z,1.93
2018-04-04T18:19:52.094Z,2.20
2018-04-04T18:22:19.679Z,1.70
2018-04-04T18:24:47.095Z,1.97
2018-04-04T18:27:14.540Z,2.40
2018-04-04T18:29:42.716Z,1.70
2018-04-04T18:32:10.136Z,1.90
2018-04-04T18:34:37.563Z,2.07
2018-04-04T18:37:04.986Z,4.70
2018-04-04T18:39:32.416Z,2.60
2018-04-04T18:41:59.848Z,2.13
2018-04-04T18:44:27.278Z,18.90
2018-04-04T18:46:54.982Z,4.13
2018-04-04T18:49:22.468Z,5.93
2018-04-04T18:51:51.027Z,8.90
2018-04-04T18:54:18.535Z,5.67
2018-04-04T18:56:45.979Z,9.37
2018-04-04T18:59:13.413Z,2.60
2018-04-04T19:01:41.109Z,2.10
2018-04-04T19:04:08.575Z,2.50
2018-04-04T19:06:36.079Z,2.20
2018-04-04T19:09:03.505Z,2.47
2018-04-04T19:11:30.936Z,2.17
2018-04-04T19:13:58.420Z,2.50
2018-04-04T19:16:25.858Z,2.63
2018-04-04T19:18:53.291Z,2.57
2018-04-04T19:21:20.703Z,3.07
2018-04-04T19:23:48.323Z,3.00
2018-04-04T19:26:15.744Z,1.97
2018-04-04T19:28:43.232Z,2.43
2018-04-04T19:31:10.651Z,2.50
2018-04-04T19:33:38.079Z,2.60
2018-04-04T19:36:06.324Z,2.20
2018-04-04T19:38:33.708Z,2.17
2018-04-04T19:41:01.303Z,3.20
2018-04-04T19:43:28.731Z,2.33
2018-04-04T19:45:56.155Z,2.23
2018-04-04T19:48:23.748Z,2.00
2018-04-04T19:50:51.628Z,1.90
2018-04-04T19:53:19.086Z,2.43
2018-04-04T19:55:46.494Z,2.23
2018-04-04T19:58:13.915Z,2.00
2018-04-04T20:00:41.335Z,2.23
2018-04-04T20:03:08.763Z,2.73
2018-04-04T20:05:36.300Z,2.30
2018-04-04T20:08:03.678Z,2.30
2018-04-04T20:10:31.104Z,2.20
2018-04-04T20:12:58.684Z,2.60
2018-04-04T20:15:26.113Z,2.00
2018-04-04T20:17:53.539Z,2.57
2018-04-04T20:20:21.964Z,2.70
2018-04-04T20:22:49.379Z,2.40
2018-04-04T20:25:16.878Z,1.90
2018-04-04T20:27:44.230Z,2.13
2018-04-04T20:30:11.664Z,1.93
2018-04-04T20:32:39.251Z,2.00
2018-04-04T20:35:06.682Z,2.20
2018-04-04T20:37:34.094Z,2.70
2018-04-04T20:40:01.559Z,2.07
2018-04-04T20:42:28.980Z,2.30
2018-04-04T20:44:56.406Z,2.43
2018-04-04T20:47:23.882Z,2.53
2018-04-04T20:49:51.318Z,2.10
2018-04-04T20:52:18.741Z,2.43
2018-04-04T20:54:46.264Z,2.63
2018-04-04T20:57:13.683Z,2.43
2018-04-04T20:59:41.110Z,2.30
2018-04-04T21:02:09.299Z,2.93
2018-04-04T21:04:36.745Z,2.53
2018-04-04T21:07:04.154Z,2.50
2018-04-04T21:09:31.579Z,2.90
2018-04-04T21:11:59.019Z,1.87
2018-04-04T21:14:26.427Z,2.13
2018-04-04T21:16:53.956Z,1.90
2018-04-04T21:19:21.460Z,1.87
2018-04-04T21:21:48.891Z,2.23
2018-04-04T21:24:16.308Z,1.97
2018-04-04T21:26:43.833Z,2.37
2018-04-04T21:29:11.353Z,2.53
2018-04-04T21:31:38.779Z,2.40
2018-04-04T21:34:06.216Z,2.17
2018-04-04T21:36:33.670Z,2.87
2018-04-04T21:39:01.853Z,2.43
2018-04-04T21:41:29.559Z,2.90
2018-04-04T21:43:56.978Z,2.53
2018-04-04T21:46:24.406Z,2.20
2018-04-04T21:48:51.822Z,2.70
2018-04-04T21:51:19.311Z,1.77
2018-04-04T21:53:46.711Z,2.13
2018-04-04T21:56:14.197Z,2.27
2018-04-04T21:58:41.624Z,2.17
2018-04-04T22:01:09.059Z,2.30
2018-04-04T22:03:37.278Z,2.00
2018-04-04T22:06:04.688Z,2.00
2018-04-04T22:08:32.155Z,2.07
2018-04-04T22:10:59.559Z,3.37
2018-04-04T22:13:27.104Z,1.97
2018-04-04T22:15:54.558Z,1.83
2018-04-04T22:18:21.988Z,2.00
2018-04-04T22:20:49.410Z,2.20
2018-04-04T22:23:16.834Z,2.83
2018-04-04T22:25:44.255Z,2.57
2018-04-04T22:28:11.679Z,1.90
2018-04-04T22:30:39.296Z,1.70
2018-04-04T22:33:06.723Z,2.03
2018-04-04T22:35:34.143Z,1.80
2018-04-04T22:38:01.575Z,1.80
2018-04-04T22:40:29.120Z,1.43
2018-04-04T22:42:56.552Z,1.50
2018-04-04T22:45:23.967Z,1.67
2018-04-04T22:47:51.390Z,1.30
2018-04-04T22:50:18.827Z,1.80
2018-04-04T22:52:46.274Z,1.40
2018-04-04T22:55:13.863Z,1.40
2018-04-04T22:57:41.311Z,1.53
2018-04-04T23:00:08.727Z,2.10
2018-04-04T23:02:36.158Z,1.20
2018-04-04T23:05:03.590Z,1.27
2018-04-04T23:07:31.143Z,1.10
2018-04-04T23:09:58.555Z,1.00
2018-04-04T23:12:25.974Z,1.03
2018-04-04T23:14:53.418Z,0.90
2018-04-04T23:17:20.843Z,1.00
2018-04-04T23:19:48.337Z,1.07
2018-04-04T23:22:15.825Z,1.40
2018-04-04T23:24:43.250Z,1.33
2018-04-04T23:27:10.667Z,1.20
2018-04-04T23:29:38.127Z,1.00
2018-04-04T23:32:05.545Z,1.37
2018-04-04T23:34:32.975Z,1.40
2018-04-04T23:37:01.244Z,1.50
2018-04-04T23:39:28.672Z,1.43
2018-04-04T23:41:56.147Z,2.13
2018-04-04T23:44:23.575Z,1.80
2018-04-04T23:46:50.999Z,1.53
2018-04-04T23:49:18.432Z,1.53
2018-04-04T23:51:45.964Z,1.50
2018-04-04T23:54:13.391Z,1.30
2018-04-04T23:56:40.810Z,1.47
2018-04-04T23:59:08.332Z,1.60
